• Join FlightAware (Why Join?)
  • Login
  • US Flag 
02:24PM EDT


 

Airport Tracker/Info


-or-


 

Live Flight TrackerFlight Track Log ✈ UAL4115 ✈ 01-May-2013 ✈ KEWR - KSAV

Flight Track Log - Related Links

Times and Time Zones

All times are in EDT time to prevent confusion due to time zone crossing. See the UAL4115 flight status page for this flight to view local times or setup timezone preferences in your user account.

Time Position Orientation Groundspeed Altitude Reporting Facility
EDT Latitude Longitude Course Direction KTS MPH feet Rate Location/Type
02:18PM 40.6333 -74.2000 194° South 185 213 2,500  Level New York TRACON
02:19PM 40.5833 -74.2500 217° Southwest 257 296 4,200 2,160 Climbing New York TRACON
02:20PM 40.3847 -74.1923 159° South  Level FlightAware Approximate
02:20PM 40.5167 -74.3000 210° Southwest 264 304 6,900  Level New York TRACON
02:21PM 40.2806 -74.1565 194° South  Level FlightAware Approximate
02:21PM 40.4667 -74.2833 166° South 265 305 9,000  Level New York TRACON
02:22PM 40.1733 -74.1922 194° South  Level FlightAware Approximate
02:22PM 40.4333 -74.1833 114° Southeast 271 312 10,900  Level New York TRACON
02:23PM 40.0663 -74.2224 194° South  Level FlightAware Approximate
02:24PM 40.3011 -74.1319 163° South 312 359 12,800  Level New York Center
02:26PM 40.1219 -74.2025 197° South 346 398 15,400 1,320 Climbing Washington Center
02:27PM 40.0247 -74.2450 199° South 358 412 16,800 1,140 Climbing Washington Center
02:28PM 39.9381 -74.3169 212° Southwest 364 419 17,800 1,140 Climbing Washington Center
02:29PM 39.8556 -74.3942 216° Southwest 369 425 19,200 1,320 Climbing Washington Center
02:30PM 39.7772 -74.4844 222° Southwest 376 433 20,500 1,140 Climbing Washington Center
02:31PM 39.7008 -74.5856 226° Southwest 386 444 21,500 1,020 Climbing Washington Center
02:32PM 39.6164 -74.6972 226° Southwest 392 451 22,600 1,020 Climbing Washington Center
02:33PM 39.5339 -74.8058 225° Southwest 404 465 23,600 960 Climbing Washington Center
02:34PM 39.4533 -74.9117 225° Southwest 412 474 24,600 1,200 Climbing Washington Center
02:35PM 39.3744 -75.0169 226° Southwest 412 474 26,100 1,440 Climbing Washington Center
02:36PM 39.2917 -75.1089 221° Southwest 407 468 27,600 1,320 Climbing Washington Center
02:37PM 39.1897 -75.1606 201° Southwest 392 451 28,800 1,140 Climbing Washington Center
02:38PM 39.0856 -75.2067 199° South 392 451 29,900 1,020 Climbing Washington Center
02:39PM 38.9794 -75.2497 198° South 397 457 30,900 900 Climbing Washington Center
02:40PM 38.8733 -75.2931 198° South 402 463 31,800 900 Climbing Washington Center
02:41PM 38.7669 -75.3414 200° South 402 463 32,800 960 Climbing Washington Center
02:42PM 38.6544 -75.3817 196° South 408 470 33,800 540 Climbing Washington Center
02:43PM 38.5442 -75.4272 198° South 414 476 34,000 600 Climbing Washington Center
02:44PM 38.4317 -75.4778 199° South 425 489 35,000 960 Climbing Washington Center
02:45PM 38.3233 -75.5336 202° Southwest 425 489 35,900 480 Climbing Washington Center
02:46PM 38.2253 -75.6208 215° Southwest 417 480 36,000  Climbing Washington Center
02:47PM 38.1250 -75.7131 216° Southwest 436 502 36,000  Level Washington Center
02:48PM 38.0250 -75.8106 218° Southwest 454 522 36,000  Level Washington Center
02:49PM 37.9100 -75.8919 209° Southwest 459 528 36,000  Level Washington Center
02:50PM 37.8056 -75.9886 216° Southwest 466 536 36,000  Level Washington Center
02:51PM 37.7050 -76.0931 219° Southwest 473 544 36,000  Level Washington Center
02:52PM 37.5981 -76.1869 215° Southwest 473 544 36,000  Level Washington Center
02:53PM 37.4975 -76.2803 216° Southwest 468 539 36,000  Level Washington Center
02:54PM 37.3989 -76.3708 216° Southwest 457 526 36,000  Level Washington Center
02:55PM 37.3044 -76.4639 218° Southwest 450 518 36,000  Level Washington Center
02:56PM 37.2058 -76.5542 216° Southwest 445 512 36,000  Level Washington Center
02:57PM 37.1092 -76.6439 217° Southwest 445 512 36,000  Level Washington Center
02:58PM 37.0144 -76.7339 217° Southwest 440 506 36,000  Level Washington Center
02:59PM 36.9175 -76.8233 216° Southwest 440 506 36,000  Level Washington Center
03:00PM 36.8228 -76.9125 217° Southwest 440 506 36,000  Level Washington Center
03:01PM 36.7236 -77.0017 216° Southwest 445 512 36,000  Level Washington Center
03:02PM 36.6222 -77.1008 218° Southwest 450 518 36,000  Level Washington Center
03:03PM 36.5272 -77.1972 219° Southwest 450 518 36,000  Level Washington Center
03:04PM 36.4319 -77.2856 217° Southwest 445 512 36,000  Level Washington Center
03:05PM 36.3389 -77.3764 218° Southwest 440 506 36,000  Level Washington Center
03:06PM 36.2500 -77.4669 219° Southwest 428 493 36,000  Level Washington Center
03:07PM 36.1608 -77.5525 218° Southwest 417 480 36,000  Level Washington Center
03:08PM 36.0719 -77.6375 218° Southwest 417 480 36,000  Level Washington Center
03:09PM 35.9806 -77.7275 219° Southwest 423 487 36,000  Level Washington Center
03:10PM 35.8872 -77.8122 216° Southwest 423 487 36,000  Level Washington Center
03:11PM 35.7958 -77.9019 219° Southwest 423 487 36,000  Level Washington Center
03:12PM 35.7022 -77.9914 218° Southwest 428 493 36,000  Level Washington Center
03:13PM 35.6064 -78.0803 217° Southwest 428 493 36,000  Level Washington Center
03:14PM 35.5319 -78.1494 217° Southwest 428 493 36,000  Level Washington Center
03:15PM 35.4297 -78.2431 217° Southwest 428 493 36,000  Level Washington Center
03:16PM 35.3381 -78.3292 217° Southwest 428 493 36,000  Level Washington Center
03:17PM 35.2444 -78.4175 218° Southwest 428 493 36,000  Level Washington Center
03:18PM 35.1525 -78.5031 217° Southwest 428 493 36,000  Level Washington Center
03:19PM 35.0628 -78.5914 219° Southwest 428 493 36,000  Level Washington Center
03:20PM 34.9731 -78.6742 217° Southwest 428 493 36,000  Level Washington Center
03:21PM 34.8853 -78.7544 217° Southwest 422 486 36,000  Level Washington Center
03:23PM 34.7225 -78.8992 216° Southwest 390 449 36,000  Level Jacksonville Center
03:24PM 34.6333 -78.9817 217° Southwest 390 449 36,000  Level Jacksonville Center
03:25PM 34.5439 -79.0664 218° Southwest 402 463 36,000  Level Jacksonville Center
03:26PM 34.4569 -79.1506 219° Southwest 408 470 36,000 -60 Level Jacksonville Center
03:27PM 34.3736 -79.2297 218° Southwest 403 464 35,900 -60 Descending Jacksonville Center
03:28PM 34.2883 -79.3064 217° Southwest 393 452 35,900 -780 Level Jacksonville Center
03:29PM 34.2028 -79.3825 216° Southwest 393 452 34,400 -1,620 Descending Jacksonville Center
03:30PM 34.1092 -79.4642 216° Southwest 388 447 32,700 -1,620 Descending Jacksonville Center
03:31PM 34.0133 -79.5506 217° Southwest 404 465 31,200 -1,560 Descending Jacksonville Center
03:32PM 33.9194 -79.6342 216° Southwest 420 483 29,600 -1,560 Descending Jacksonville Center
03:33PM 33.8217 -79.7228 217° Southwest 431 496 28,100 -1,500 Descending Jacksonville Center
03:34PM 33.7236 -79.8111 217° Southwest 443 510 26,600 -1,500 Descending Jacksonville Center
03:35PM 33.6214 -79.9019 217° Southwest 455 524 25,100 -1,500 Descending Jacksonville Center
03:36PM 33.5214 -79.9925 217° Southwest 455 524 23,600 -1,500 Descending Jacksonville Center
03:37PM 33.4231 -80.0806 217° Southwest 450 518 22,100 -1,500 Descending Jacksonville Center
03:38PM 33.3269 -80.1656 216° Southwest 450 518 20,600 -1,080 Descending Jacksonville Center
03:39PM 33.2286 -80.2506 216° Southwest 444 511 20,000 -300 Descending Jacksonville Center
03:40PM 33.1322 -80.3353 216° Southwest 444 511 20,000  Level Jacksonville Center
03:41PM 33.0339 -80.4247 217° Southwest 444 511 20,000 -60 Level Jacksonville Center
03:42PM 32.9372 -80.5067 215° Southwest 449 517 19,900 -780 Descending Jacksonville Center
03:43PM 32.8508 -80.5781 215° Southwest 439 505 18,500 -1,440 Descending Jacksonville Center
03:44PM 32.7586 -80.6594 217° Southwest 432 497 17,100 -1,680 Descending Jacksonville Center
03:45PM 32.6681 -80.7383 216° Southwest 419 482 15,200 -2,160 Descending Jacksonville Center
03:46PM 32.5836 -80.8092 215° Southwest 398 458 12,800 -1,980 Descending Jacksonville Center
03:47PM 32.5094 -80.8750 217° Southwest 366 421 11,300 -1,500 Descending Jacksonville Center
03:48PM 32.4692 -80.9644 242° Southwest 299 344 9,900 -1,620 Descending Jacksonville Center
03:49PM 32.4514 -81.0389 254° West 283 326 8,100 -1,980 Descending Jacksonville Center
03:50PM 32.4233 -81.1206 248° West 261 300 6,000 -2,400 Descending Jacksonville Center
03:51PM 32.3764 -81.1978 234° Southwest 265 305 3,300 -2,040 Descending Jacksonville Center
03:52PM 32.3336 -81.2650 233° Southwest 270 311 2,000 -660 Descending Jacksonville Center
03:53PM 32.2842 -81.3247 226° Southwest 264 304 2,000  Level Jacksonville Center
03:54PM 32.2300 -81.3306 185° South 228 262 2,000 -60 Level Jacksonville Center
03:55PM 32.1675 -81.3367 185° South 228 262 1,900 -360 Descending Jacksonville Center
03:56PM 32.1294 -81.2981 139° Southeast 183 211 1,300 -720 Descending Jacksonville Center
03:57PM 32.1289 -81.2514 91° East 137 158 500 -840 Descending Jacksonville Center